createdAt,value
2023-03-03T00:01:15.257Z,13.63
2023-03-03T00:03:41.946Z,14.70
2023-03-03T00:06:11.486Z,16.58
2023-03-03T00:08:38.356Z,16.00
2023-03-03T00:11:06.723Z,17.08
2023-03-03T00:13:45.621Z,13.77
2023-03-03T00:16:27.358Z,13.50
2023-03-03T00:18:54.567Z,13.70
2023-03-03T00:21:33.483Z,14.07
2023-03-03T00:24:20.370Z,12.15
2023-03-03T00:26:50.131Z,13.77
2023-03-03T00:29:41.066Z,14.05
2023-03-03T00:32:16.717Z,13.05
2023-03-03T00:34:43.456Z,13.35
2023-03-03T00:37:28.949Z,13.15
2023-03-03T00:40:13.729Z,13.20
2023-03-03T00:42:40.827Z,11.77
2023-03-03T00:45:38.206Z,12.10
2023-03-03T00:48:20.253Z,11.40
2023-03-03T00:50:46.763Z,12.32
2023-03-03T00:53:21.049Z,10.27
2023-03-03T00:55:49.063Z,11.82
2023-03-03T00:58:16.852Z,11.77
2023-03-03T01:00:46.272Z,11.50
2023-03-03T01:03:19.068Z,11.52
2023-03-03T01:05:45.614Z,12.32
2023-03-03T01:08:12.659Z,11.23
2023-03-03T01:10:46.882Z,12.25
2023-03-03T01:13:13.324Z,11.65
2023-03-03T01:15:40.715Z,12.32
2023-03-03T01:18:07.817Z,11.15
2023-03-03T01:20:34.348Z,12.10
2023-03-03T01:23:00.965Z,11.85
2023-03-03T01:25:27.686Z,11.85
2023-03-03T01:27:54.513Z,12.02
2023-03-03T01:30:21.130Z,12.07
2023-03-03T01:32:47.509Z,11.27
2023-03-03T01:35:14.535Z,12.70
2023-03-03T01:37:40.964Z,12.10
2023-03-03T01:40:13.319Z,12.23
2023-03-03T01:42:39.841Z,12.15
2023-03-03T01:45:24.455Z,11.38
2023-03-03T01:48:01.410Z,11.50
2023-03-03T01:50:33.136Z,11.88
2023-03-03T01:53:02.418Z,11.98
2023-03-03T01:55:36.580Z,11.77
2023-03-03T01:58:37.230Z,11.77
2023-03-03T02:01:07.858Z,12.15
2023-03-03T02:03:34.992Z,12.27
2023-03-03T02:06:07.876Z,11.48
2023-03-03T02:08:47.749Z,11.57
2023-03-03T02:11:16.040Z,11.82
2023-03-03T02:13:42.474Z,11.82
2023-03-03T02:16:09.241Z,12.77
2023-03-03T02:18:35.801Z,12.25
2023-03-03T02:21:14.309Z,13.18
2023-03-03T02:23:59.135Z,12.55
2023-03-03T02:26:28.220Z,13.48
2023-03-03T02:29:00.188Z,12.63
2023-03-03T02:31:30.542Z,12.38
2023-03-03T02:33:57.862Z,13.75
2023-03-03T02:36:30.442Z,12.80
2023-03-03T02:39:10.482Z,12.10
2023-03-03T02:41:59.411Z,12.52
2023-03-03T02:44:33.492Z,11.75
2023-03-03T02:47:00.351Z,11.55
2023-03-03T02:49:30.832Z,12.73
2023-03-03T02:51:57.690Z,12.98
2023-03-03T02:54:27.878Z,13.02
2023-03-03T02:56:54.280Z,12.02
2023-03-03T02:59:20.771Z,12.32
2023-03-03T03:01:49.448Z,13.15
2023-03-03T03:04:21.317Z,13.45
2023-03-03T03:06:49.782Z,13.02
2023-03-03T03:09:18.500Z,12.85
2023-03-03T03:11:46.189Z,13.30
2023-03-03T03:14:14.584Z,13.32
2023-03-03T03:16:42.365Z,12.35
2023-03-03T03:19:08.989Z,13.35
2023-03-03T03:21:36.909Z,12.13
2023-03-03T03:24:04.912Z,12.88
2023-03-03T03:26:32.331Z,14.32
2023-03-03T03:28:59.352Z,14.05
2023-03-03T03:31:25.948Z,14.93
2023-03-03T03:33:52.897Z,15.30
2023-03-03T03:36:21.199Z,14.85
2023-03-03T03:38:48.434Z,14.68
2023-03-03T03:41:15.151Z,15.38
2023-03-03T03:43:42.260Z,15.50
2023-03-03T03:46:09.303Z,14.25
2023-03-03T03:48:36.117Z,13.77
2023-03-03T03:51:05.005Z,12.85
2023-03-03T03:53:32.205Z,13.30
2023-03-03T03:55:58.886Z,14.30
2023-03-03T03:58:25.581Z,13.10
2023-03-03T04:01:03.530Z,14.00
2023-03-03T04:03:30.178Z,14.60
2023-03-03T04:05:56.657Z,14.40
2023-03-03T04:08:23.502Z,14.25
2023-03-03T04:10:50.092Z,13.15
2023-03-03T04:13:16.495Z,13.02
2023-03-03T04:15:42.990Z,14.35
2023-03-03T04:18:09.579Z,24.65
2023-03-03T04:20:36.083Z,19.05
2023-03-03T04:23:02.866Z,14.15
2023-03-03T04:25:31.075Z,14.55
2023-03-03T04:27:57.738Z,14.35
2023-03-03T04:30:26.790Z,14.55
2023-03-03T04:32:55.737Z,14.43
2023-03-03T04:35:25.165Z,14.07
2023-03-03T04:37:52.775Z,14.50
2023-03-03T04:40:19.675Z,15.13
2023-03-03T04:42:48.960Z,14.50
2023-03-03T04:45:15.493Z,15.10
2023-03-03T04:47:42.273Z,14.32
2023-03-03T04:50:10.590Z,14.63
2023-03-03T04:52:37.433Z,16.05
2023-03-03T04:55:05.310Z,16.83
2023-03-03T04:57:32.149Z,15.68
2023-03-03T04:59:58.742Z,17.38
2023-03-03T05:02:25.417Z,17.80
2023-03-03T05:04:51.999Z,19.13
2023-03-03T05:07:19.936Z,18.88
2023-03-03T05:09:46.289Z,19.05
2023-03-03T05:12:12.671Z,20.80
2023-03-03T05:14:39.035Z,19.42
2023-03-03T05:17:05.905Z,20.83
2023-03-03T05:19:32.289Z,18.90
2023-03-03T05:21:58.729Z,20.98
2023-03-03T05:24:25.131Z,19.83
2023-03-03T05:26:51.524Z,19.30
2023-03-03T05:29:17.926Z,18.60
2023-03-03T05:31:45.638Z,19.08
2023-03-03T05:34:12.185Z,18.70
2023-03-03T05:36:38.624Z,18.13
2023-03-03T05:39:05.076Z,19.77
2023-03-03T05:41:31.440Z,17.50
2023-03-03T05:43:57.833Z,19.35
2023-03-03T05:46:24.378Z,20.30
2023-03-03T05:48:50.764Z,20.08
2023-03-03T05:51:17.205Z,21.80
2023-03-03T05:53:43.572Z,20.95
2023-03-03T05:56:10.016Z,23.40
2023-03-03T05:58:36.408Z,26.17
2023-03-03T06:01:02.876Z,25.38
2023-03-03T06:03:29.263Z,25.90
2023-03-03T06:05:55.652Z,24.88
2023-03-03T06:08:22.011Z,24.33
2023-03-03T06:10:48.600Z,26.17
2023-03-03T06:13:15.716Z,26.00
2023-03-03T06:15:42.213Z,25.23
2023-03-03T06:18:08.748Z,25.10
2023-03-03T06:20:36.542Z,23.25
2023-03-03T06:23:02.951Z,23.63
2023-03-03T06:25:29.347Z,24.15
2023-03-03T06:27:55.786Z,26.08
2023-03-03T06:30:22.270Z,26.20
2023-03-03T06:32:48.874Z,25.50
2023-03-03T06:35:15.376Z,26.17
2023-03-03T06:37:41.797Z,28.00
2023-03-03T06:40:08.963Z,28.95
2023-03-03T06:42:35.368Z,28.45
2023-03-03T06:45:01.777Z,31.70
2023-03-03T06:47:28.158Z,30.27
2023-03-03T06:49:54.519Z,28.33
2023-03-03T06:52:26.405Z,31.17
2023-03-03T06:54:58.828Z,28.07
2023-03-03T06:57:29.725Z,24.00
2023-03-03T07:00:02.488Z,28.33
2023-03-03T07:02:28.894Z,27.60
2023-03-03T07:04:56.673Z,27.58
2023-03-03T07:07:26.033Z,28.33
2023-03-03T07:09:55.362Z,27.80
2023-03-03T07:12:30.937Z,31.13
2023-03-03T07:15:17.616Z,29.23
2023-03-03T07:17:50.465Z,29.35
2023-03-03T07:20:24.005Z,30.65
2023-03-03T07:25:30.210Z,28.38
2023-03-03T07:28:01.836Z,29.70
2023-03-03T07:30:29.755Z,28.88
2023-03-03T07:32:58.720Z,30.42
2023-03-03T07:35:39.001Z,31.35
2023-03-03T07:38:25.632Z,30.33
2023-03-03T07:40:54.920Z,28.70
2023-03-03T07:43:54.618Z,30.85
2023-03-03T07:46:23.362Z,30.35
2023-03-03T07:48:51.436Z,31.33
2023-03-03T07:51:36.644Z,30.67
2023-03-03T07:54:42.557Z,29.65
2023-03-03T07:57:11.712Z,30.45
2023-03-03T07:59:44.192Z,29.13
2023-03-03T08:02:35.641Z,30.08
2023-03-03T08:05:04.906Z,31.05
2023-03-03T08:07:32.210Z,31.95
2023-03-03T08:10:00.219Z,30.60
2023-03-03T08:12:44.946Z,29.70
2023-03-03T08:15:25.753Z,29.75
2023-03-03T08:17:55.068Z,29.75
2023-03-03T08:20:42.312Z,30.77
2023-03-03T08:23:08.814Z,28.88
2023-03-03T08:25:35.275Z,28.02
2023-03-03T08:28:01.782Z,29.08
2023-03-03T08:30:28.200Z,28.52
2023-03-03T08:32:54.708Z,29.63
2023-03-03T08:35:21.163Z,30.63
2023-03-03T08:37:47.645Z,27.13
2023-03-03T08:40:14.305Z,29.73
2023-03-03T08:42:40.739Z,27.27
2023-03-03T08:45:07.363Z,26.75
2023-03-03T08:47:33.940Z,26.52
2023-03-03T08:50:00.330Z,27.58
2023-03-03T08:52:26.801Z,27.08
2023-03-03T08:54:54.140Z,25.98
2023-03-03T08:57:20.580Z,26.45
2023-03-03T08:59:47.701Z,26.10
2023-03-03T09:02:14.137Z,26.75
2023-03-03T09:04:40.497Z,25.92
2023-03-03T09:07:07.060Z,26.70
2023-03-03T09:09:33.579Z,26.80
2023-03-03T09:12:13.300Z,28.77
2023-03-03T09:14:39.658Z,26.73
2023-03-03T09:17:38.393Z,26.80
2023-03-03T09:20:35.567Z,26.05
2023-03-03T09:23:30.990Z,25.40
2023-03-03T09:26:15.288Z,25.52
2023-03-03T09:28:42.233Z,24.27
2023-03-03T09:31:24.340Z,25.13
2023-03-03T09:33:51.835Z,25.58
2023-03-03T09:36:38.108Z,26.13
2023-03-03T09:39:26.052Z,26.00
2023-03-03T09:42:26.835Z,27.10
2023-03-03T09:45:17.852Z,27.00
2023-03-03T09:48:03.180Z,26.45
2023-03-03T09:50:59.440Z,26.13
2023-03-03T09:53:45.027Z,24.80
2023-03-03T09:56:14.177Z,24.70
2023-03-03T09:58:49.580Z,23.92
2023-03-03T10:01:21.961Z,24.70
2023-03-03T10:04:18.575Z,19.25
2023-03-03T10:07:04.289Z,24.15
2023-03-03T10:10:03.213Z,24.95
2023-03-03T10:13:03.922Z,24.60
2023-03-03T10:15:46.969Z,25.08
2023-03-03T10:18:36.429Z,26.30
2023-03-03T10:21:10.485Z,25.25
2023-03-03T10:23:58.367Z,27.02
2023-03-03T10:27:13.409Z,24.45
2023-03-03T10:29:59.966Z,23.83
2023-03-03T10:32:40.508Z,26.05
2023-03-03T10:35:28.748Z,23.60
2023-03-03T10:38:25.745Z,24.75
2023-03-03T10:41:20.036Z,24.58
2023-03-03T10:44:03.142Z,23.52
2023-03-03T10:46:55.276Z,24.40
2023-03-03T10:49:39.186Z,23.90
2023-03-03T10:52:16.171Z,22.88
2023-03-03T10:55:14.694Z,23.02
2023-03-03T10:57:59.067Z,23.50
2023-03-03T11:01:03.113Z,23.45
2023-03-03T11:04:06.942Z,22.92
2023-03-03T11:07:05.871Z,23.63
2023-03-03T11:09:43.930Z,23.55
2023-03-03T11:12:49.493Z,20.90
2023-03-03T11:15:18.224Z,22.13
2023-03-03T11:18:07.785Z,20.48
2023-03-03T11:20:42.911Z,23.48
2023-03-03T11:23:28.191Z,21.60
2023-03-03T11:26:07.561Z,19.77
2023-03-03T11:29:07.857Z,21.10
2023-03-03T11:31:52.495Z,20.38
2023-03-03T11:34:40.874Z,19.45
2023-03-03T11:37:12.010Z,19.98
2023-03-03T11:39:41.216Z,20.23
2023-03-03T11:42:30.023Z,20.33
2023-03-03T11:45:02.160Z,20.73
2023-03-03T11:47:58.200Z,17.13
2023-03-03T11:50:47.727Z,20.30
2023-03-03T11:53:34.925Z,19.90
2023-03-03T11:56:27.002Z,18.38
2023-03-03T11:59:10.166Z,19.30
2023-03-03T12:01:42.898Z,19.13
2023-03-03T12:05:01.074Z,18.13
2023-03-03T12:08:07.391Z,19.15
2023-03-03T12:10:50.887Z,18.60
2023-03-03T12:13:41.374Z,19.45
2023-03-03T12:16:17.455Z,18.50
2023-03-03T12:18:59.163Z,17.98
2023-03-03T12:21:37.087Z,19.73
2023-03-03T12:24:12.342Z,17.55
2023-03-03T12:27:07.347Z,18.17
2023-03-03T12:29:50.949Z,18.30
2023-03-03T12:32:35.205Z,18.50
2023-03-03T12:35:12.045Z,18.10
2023-03-03T12:37:54.266Z,17.13
2023-03-03T12:40:33.205Z,16.20
2023-03-03T12:43:17.345Z,18.52
2023-03-03T12:46:17.709Z,18.00
2023-03-03T12:48:46.207Z,17.65
2023-03-03T12:51:36.862Z,17.70
2023-03-03T12:54:36.925Z,18.67
2023-03-03T12:57:09.681Z,18.58
2023-03-03T13:00:13.489Z,18.83
2023-03-03T13:05:31.354Z,16.65
2023-03-03T13:08:33.316Z,18.52
2023-03-03T13:11:24.617Z,17.35
2023-03-03T13:14:04.047Z,18.40
2023-03-03T13:16:40.561Z,17.60
2023-03-03T13:19:21.852Z,15.95
2023-03-03T13:22:13.659Z,16.70
2023-03-03T13:25:08.321Z,17.02
2023-03-03T13:27:40.104Z,16.92
2023-03-03T13:30:30.398Z,15.88
2023-03-03T13:33:02.644Z,16.45
2023-03-03T13:35:49.858Z,18.40
2023-03-03T13:38:22.243Z,17.95
2023-03-03T13:40:53.607Z,17.52
2023-03-03T13:43:26.553Z,17.33
2023-03-03T13:45:57.507Z,17.02
2023-03-03T13:48:52.162Z,18.42
2023-03-03T13:51:23.898Z,17.15
2023-03-03T13:54:16.087Z,16.80
2023-03-03T13:57:07.325Z,18.40
2023-03-03T13:59:59.718Z,16.35
2023-03-03T14:02:26.060Z,18.90
2023-03-03T14:05:01.433Z,18.38
2023-03-03T14:07:37.687Z,18.08
2023-03-03T14:10:18.460Z,17.30
2023-03-03T14:12:56.712Z,15.50
2023-03-03T14:15:31.494Z,16.27
2023-03-03T14:18:30.868Z,16.75
2023-03-03T14:21:04.989Z,17.02
2023-03-03T14:23:47.973Z,17.25
2023-03-03T14:26:14.696Z,16.50
2023-03-03T14:28:48.114Z,15.57
2023-03-03T14:31:27.014Z,16.38
2023-03-03T14:34:23.320Z,15.38
2023-03-03T14:36:53.874Z,17.40
2023-03-03T14:39:38.802Z,21.50
2023-03-03T14:42:31.412Z,23.88
2023-03-03T14:45:00.980Z,18.60
2023-03-03T14:47:28.698Z,23.65
2023-03-03T14:49:59.992Z,20.23
2023-03-03T14:52:28.669Z,23.77
2023-03-03T14:54:59.621Z,24.30
2023-03-03T14:57:35.483Z,23.75
2023-03-03T15:00:24.913Z,23.80
2023-03-03T15:03:15.537Z,22.92
2023-03-03T15:05:52.507Z,22.48
2023-03-03T15:08:32.127Z,21.35
2023-03-03T15:11:18.126Z,19.88
2023-03-03T15:13:45.004Z,21.02
2023-03-03T15:16:18.658Z,20.67
2023-03-03T15:19:18.659Z,22.88
2023-03-03T15:22:07.501Z,21.45
2023-03-03T15:24:49.231Z,23.08
2023-03-03T15:27:24.406Z,20.90
2023-03-03T15:30:18.460Z,19.33
2023-03-03T15:33:04.873Z,18.38
2023-03-03T15:36:09.178Z,15.90
2023-03-03T15:38:49.867Z,14.30
2023-03-03T15:41:26.008Z,14.75
2023-03-03T15:44:09.730Z,16.15
2023-03-03T15:47:07.685Z,14.13
2023-03-03T15:49:52.713Z,15.20
2023-03-03T15:52:33.004Z,13.52
2023-03-03T15:55:14.548Z,14.25
2023-03-03T15:58:05.739Z,12.75
2023-03-03T16:01:02.454Z,12.75
2023-03-03T16:03:53.070Z,11.68
2023-03-03T16:06:33.902Z,11.48
2023-03-03T16:09:21.354Z,12.48
2023-03-03T16:11:52.003Z,10.65
2023-03-03T16:14:36.691Z,10.98
2023-03-03T16:17:12.138Z,11.13
2023-03-03T16:20:09.025Z,11.70
2023-03-03T16:23:02.498Z,10.60
2023-03-03T16:28:16.946Z,10.75
2023-03-03T16:31:00.231Z,8.65
2023-03-03T16:36:04.873Z,11.00
2023-03-03T16:38:42.897Z,11.52
2023-03-03T16:41:15.488Z,9.75
2023-03-03T16:43:59.823Z,10.00
2023-03-03T16:46:38.475Z,11.35
2023-03-03T16:49:10.604Z,10.52
2023-03-03T16:51:56.835Z,10.67
2023-03-03T16:54:54.135Z,9.75
2023-03-03T16:57:37.392Z,12.07
2023-03-03T17:02:54.833Z,8.93
2023-03-03T17:05:53.693Z,10.50
2023-03-03T17:08:37.766Z,9.32
2023-03-03T17:11:30.269Z,10.75
2023-03-03T17:14:11.085Z,9.95
2023-03-03T17:16:53.069Z,9.75
2023-03-03T17:19:37.995Z,10.93
2023-03-03T17:22:12.380Z,10.20
2023-03-03T17:25:00.778Z,9.00
2023-03-03T17:27:48.456Z,9.55
2023-03-03T17:30:29.789Z,10.50
2023-03-03T17:33:06.020Z,9.82
2023-03-03T17:35:48.703Z,9.50
2023-03-03T17:38:22.027Z,11.45
2023-03-03T17:41:11.115Z,9.95
2023-03-03T17:43:59.029Z,10.93
2023-03-03T17:46:54.018Z,10.38
2023-03-03T17:49:35.581Z,9.75
2023-03-03T17:52:16.887Z,10.23
2023-03-03T17:54:58.883Z,9.82
2023-03-03T17:57:25.326Z,10.85
2023-03-03T18:00:19.486Z,10.20
2023-03-03T18:02:57.613Z,11.02
2023-03-03T18:05:26.726Z,10.90
2023-03-03T18:08:13.819Z,11.48
2023-03-03T18:10:46.713Z,12.13
2023-03-03T18:13:22.271Z,12.00
2023-03-03T18:16:10.794Z,12.95
2023-03-03T18:18:52.440Z,12.13
2023-03-03T18:21:18.884Z,14.13
2023-03-03T18:23:47.218Z,17.05
2023-03-03T18:26:41.893Z,13.60
2023-03-03T18:29:17.453Z,16.42
2023-03-03T18:31:59.883Z,17.88
2023-03-03T18:34:38.582Z,14.25
2023-03-03T18:37:31.149Z,15.38
2023-03-03T18:40:03.342Z,16.93
2023-03-03T18:42:41.378Z,17.50
2023-03-03T18:45:30.791Z,17.67
2023-03-03T18:47:59.652Z,19.15
2023-03-03T18:50:36.345Z,20.48
2023-03-03T18:53:11.209Z,25.25
2023-03-03T18:55:43.710Z,29.27
2023-03-03T18:58:15.923Z,34.75
2023-03-03T19:01:00.329Z,33.25
2023-03-03T19:03:46.965Z,21.90
2023-03-03T19:06:36.449Z,19.25
2023-03-03T19:09:08.828Z,19.08
2023-03-03T19:11:40.529Z,14.65
2023-03-03T19:14:18.752Z,18.55
2023-03-03T19:16:45.490Z,18.83
2023-03-03T19:19:17.648Z,19.20
2023-03-03T19:21:49.199Z,19.77
2023-03-03T19:24:28.059Z,22.05
2023-03-03T19:27:03.266Z,20.52
2023-03-03T19:29:48.392Z,22.33
2023-03-03T19:32:48.361Z,21.25
2023-03-03T19:35:34.325Z,20.45
2023-03-03T19:38:03.606Z,18.95
2023-03-03T19:40:59.978Z,19.33
2023-03-03T19:43:42.829Z,18.13
2023-03-03T19:46:37.416Z,19.35
2023-03-03T19:49:33.374Z,18.42
2023-03-03T19:52:23.926Z,17.13
2023-03-03T19:55:18.450Z,17.55
2023-03-03T19:58:00.050Z,19.75
2023-03-03T20:00:30.611Z,20.77
2023-03-03T20:03:25.313Z,19.58
2023-03-03T20:06:17.188Z,19.77
2023-03-03T20:08:59.406Z,21.85
2023-03-03T20:11:47.805Z,21.65
2023-03-03T20:14:39.608Z,19.33
2023-03-03T20:17:18.045Z,20.38
2023-03-03T20:20:01.226Z,21.05
2023-03-03T20:25:00.533Z,19.77
2023-03-03T20:27:48.265Z,20.00
2023-03-03T20:30:25.050Z,19.77
2023-03-03T20:33:07.960Z,22.52
2023-03-03T20:35:55.302Z,21.90
2023-03-03T20:38:51.761Z,21.10
2023-03-03T20:41:26.247Z,22.73
2023-03-03T20:44:09.387Z,21.80
2023-03-03T20:47:06.416Z,22.63
2023-03-03T20:49:55.184Z,21.80
2023-03-03T20:52:58.826Z,22.98
2023-03-03T20:58:09.627Z,23.02
2023-03-03T21:01:04.105Z,25.00
2023-03-03T21:03:37.222Z,23.52
2023-03-03T21:06:09.797Z,23.92
2023-03-03T21:08:48.236Z,23.35
2023-03-03T21:11:17.406Z,23.00
2023-03-03T21:13:47.822Z,22.65
2023-03-03T21:16:20.153Z,23.58
2023-03-03T21:19:11.117Z,22.80
2023-03-03T21:21:44.992Z,22.70
2023-03-03T21:24:15.083Z,26.27
2023-03-03T21:26:58.867Z,24.85
2023-03-03T21:29:35.667Z,28.63
2023-03-03T21:32:04.911Z,24.63
2023-03-03T21:34:32.550Z,24.60
2023-03-03T21:37:00.750Z,24.40
2023-03-03T21:39:35.729Z,23.85
2023-03-03T21:42:05.372Z,24.58
2023-03-03T21:44:33.880Z,24.95
2023-03-03T21:47:01.016Z,23.98
2023-03-03T21:49:28.074Z,25.60
2023-03-03T21:51:55.998Z,22.10
2023-03-03T21:54:22.717Z,24.88
2023-03-03T21:56:50.035Z,21.20
2023-03-03T21:59:17.386Z,21.88
2023-03-03T22:01:44.250Z,25.52
2023-03-03T22:04:10.875Z,24.23
2023-03-03T22:06:37.445Z,24.95
2023-03-03T22:09:05.042Z,24.98
2023-03-03T22:11:31.773Z,26.17
2023-03-03T22:13:58.258Z,25.40
2023-03-03T22:16:24.762Z,28.55
2023-03-03T22:18:51.205Z,23.83
2023-03-03T22:21:17.620Z,26.73
2023-03-03T22:23:44.090Z,26.45
2023-03-03T22:26:10.524Z,27.25
2023-03-03T22:28:36.895Z,24.95
2023-03-03T22:31:03.394Z,24.33
2023-03-03T22:33:30.614Z,28.42
2023-03-03T22:35:57.035Z,26.15
2023-03-03T22:38:24.986Z,27.25
2023-03-03T22:40:52.341Z,24.80
2023-03-03T22:43:18.726Z,25.35
2023-03-03T22:45:45.234Z,24.85
2023-03-03T22:48:12.230Z,23.38
2023-03-03T22:50:40.188Z,24.13
2023-03-03T22:53:07.377Z,24.73
2023-03-03T22:55:36.817Z,26.73
2023-03-03T22:58:09.382Z,27.63
2023-03-03T23:00:38.332Z,27.45
2023-03-03T23:03:06.550Z,28.20
2023-03-03T23:05:33.341Z,26.63
2023-03-03T23:07:59.768Z,26.60
2023-03-03T23:10:26.205Z,26.95
2023-03-03T23:12:52.619Z,27.67
2023-03-03T23:15:19.085Z,28.45
2023-03-03T23:17:46.384Z,28.65
2023-03-03T23:20:15.414Z,27.83
2023-03-03T23:22:41.917Z,27.67
2023-03-03T23:25:09.106Z,30.33
2023-03-03T23:27:35.906Z,26.70
2023-03-03T23:30:02.559Z,28.63
2023-03-03T23:32:28.910Z,27.80
2023-03-03T23:34:55.355Z,27.38
2023-03-03T23:37:22.098Z,26.63
2023-03-03T23:39:48.844Z,24.35
2023-03-03T23:42:15.221Z,27.98
2023-03-03T23:44:41.596Z,25.17
2023-03-03T23:47:08.744Z,28.70
2023-03-03T23:49:35.935Z,26.65
2023-03-03T23:52:02.921Z,28.58
2023-03-03T23:54:29.421Z,26.70
2023-03-03T23:56:55.845Z,25.25
2023-03-03T23:59:22.270Z,29.35
